createdAt,value
2022-12-01T00:01:22.055Z,5.1
2022-12-01T00:03:24.215Z,5.1
2022-12-01T00:05:26.187Z,5.1
2022-12-01T00:07:31.470Z,5.1
2022-12-01T00:09:33.477Z,5.1
2022-12-01T00:12:38.204Z,5.1
2022-12-01T00:14:40.129Z,5.1
2022-12-01T00:20:49.420Z,5.1
2022-12-01T00:26:55.621Z,5.1
2022-12-01T00:28:57.698Z,5.1
2022-12-01T00:30:59.759Z,5.1
2022-12-01T00:33:01.848Z,5.1
2022-12-01T00:35:07.081Z,5.1
2022-12-01T00:37:09.130Z,5.1
2022-12-01T00:39:11.235Z,5.1
2022-12-01T00:41:13.315Z,5.1
2022-12-01T00:43:15.380Z,5.1
2022-12-01T00:45:17.601Z,5.1
2022-12-01T00:47:19.533Z,5.1
2022-12-01T00:49:24.764Z,5.1
2022-12-01T00:51:26.834Z,5.1
2022-12-01T00:53:28.889Z,5.1
2022-12-01T00:55:30.955Z,5.1
2022-12-01T01:01:37.139Z,5.1
2022-12-01T01:03:42.291Z,5.1
2022-12-01T01:05:44.366Z,5.1
2022-12-01T01:07:46.516Z,5.1
2022-12-01T01:10:51.094Z,5.1
2022-12-01T01:17:00.495Z,5.1
2022-12-01T01:19:02.513Z,5.1
2022-12-01T01:23:06.645Z,5.2
2022-12-01T01:25:09.252Z,5.2
2022-12-01T01:27:11.323Z,5.2
2022-12-01T01:31:18.706Z,5.2
2022-12-01T01:33:20.671Z,5.2
2022-12-01T01:37:24.829Z,5.1
2022-12-01T01:39:26.779Z,5.1
2022-12-01T01:41:28.844Z,5.2
2022-12-01T01:43:30.910Z,5.1
2022-12-01T01:45:36.211Z,5.2
2022-12-01T01:47:38.232Z,5.1
2022-12-01T01:49:40.283Z,5.1
2022-12-01T01:51:42.355Z,5.1
2022-12-01T01:55:46.409Z,5.1
2022-12-01T01:57:48.478Z,5.1
2022-12-01T01:59:53.731Z,5.1
2022-12-01T02:01:55.755Z,5.1
2022-12-01T02:03:57.723Z,5.1
2022-12-01T02:05:00.322Z,5.1
2022-12-01T02:13:11.754Z,5.1
2022-12-01T02:15:13.812Z,5.1
2022-12-01T02:17:15.888Z,5.1
2022-12-01T02:25:24.142Z,5.1
2022-12-01T02:27:29.339Z,5.1
2022-12-01T02:29:31.408Z,5.1
2022-12-01T02:31:33.466Z,5.1
2022-12-01T02:35:37.620Z,5.1
2022-12-01T02:37:39.702Z,5.1
2022-12-01T02:39:41.792Z,5
2022-12-01T02:41:46.984Z,5
2022-12-01T02:43:49.090Z,5
2022-12-01T02:49:55.319Z,5.1
2022-12-01T02:51:57.402Z,5
2022-12-01T02:53:59.478Z,5
2022-12-01T02:56:04.685Z,5
2022-12-01T02:58:06.772Z,5
2022-12-01T03:00:08.851Z,5
2022-12-01T03:02:31.761Z,5
2022-12-01T03:04:33.786Z,5
2022-12-01T03:06:35.877Z,5
2022-12-01T03:08:41.095Z,5
2022-12-01T03:10:43.179Z,5
2022-12-01T03:12:45.256Z,5
2022-12-01T03:14:47.329Z,5
2022-12-01T03:16:49.424Z,5
2022-12-01T03:18:51.466Z,5
2022-12-01T03:20:53.534Z,5
2022-12-01T03:22:58.758Z,5
2022-12-01T03:25:00.846Z,5
2022-12-01T03:27:02.943Z,5
2022-12-01T03:29:05.012Z,5
2022-12-01T03:31:07.085Z,5
2022-12-01T03:33:09.121Z,4.9
2022-12-01T03:35:11.178Z,4.9
2022-12-01T03:37:16.395Z,4.9
2022-12-01T03:39:18.483Z,4.9
2022-12-01T03:41:20.575Z,4.9
2022-12-01T03:43:22.590Z,4.9
2022-12-01T03:47:26.702Z,4.9
2022-12-01T03:49:28.790Z,4.9
2022-12-01T03:51:34.006Z,4.9
2022-12-01T03:53:36.102Z,4.9
2022-12-01T03:55:38.275Z,4.9
2022-12-01T03:56:40.766Z,4.9
2022-12-01T03:58:42.829Z,4.9
2022-12-01T04:00:44.888Z,4.9
2022-12-01T04:02:47.032Z,4.9
2022-12-01T04:04:52.154Z,4.9
2022-12-01T04:06:54.243Z,4.9
2022-12-01T04:08:56.341Z,4.9
2022-12-01T04:10:58.393Z,4.9
2022-12-01T04:13:00.336Z,4.9
2022-12-01T04:15:02.396Z,4.9
2022-12-01T04:17:04.458Z,4.9
2022-12-01T04:19:09.705Z,4.9
2022-12-01T04:21:11.743Z,4.9
2022-12-01T04:23:13.842Z,4.9
2022-12-01T04:25:15.961Z,4.9
2022-12-01T04:27:17.987Z,4.9
2022-12-01T04:29:19.766Z,4.9
2022-12-01T04:31:21.928Z,4.9
2022-12-01T04:33:34.008Z,4.9
2022-12-01T04:35:30.841Z,4.9
2022-12-01T04:37:32.721Z,4.9
2022-12-01T04:39:34.792Z,4.9
2022-12-01T04:41:36.849Z,4.9
2022-12-01T04:43:38.915Z,4.9
2022-12-01T04:45:41.009Z,4.9
2022-12-01T04:47:46.197Z,4.9
2022-12-01T04:49:48.566Z,4.8
2022-12-01T04:51:50.331Z,4.9
2022-12-01T04:54:55.009Z,4.9
2022-12-01T04:58:59.146Z,4.9
2022-12-01T05:01:04.432Z,4.9
2022-12-01T05:03:09.636Z,4.9
2022-12-01T05:05:08.495Z,4.9
2022-12-01T05:07:10.601Z,4.9
2022-12-01T05:09:16.737Z,4.9
2022-12-01T05:11:14.729Z,4.8
2022-12-01T05:13:16.772Z,4.8
2022-12-01T05:15:21.983Z,4.9
2022-12-01T05:17:24.065Z,4.9
2022-12-01T05:19:26.126Z,4.8
2022-12-01T05:21:28.220Z,4.8
2022-12-01T05:23:30.286Z,4.8
2022-12-01T05:25:32.357Z,4.8
2022-12-01T05:27:34.389Z,4.8
2022-12-01T05:29:56.057Z,4.8
2022-12-01T05:31:41.743Z,4.8
2022-12-01T05:33:43.752Z,4.8
2022-12-01T05:39:50.246Z,4.8
2022-12-01T05:41:51.971Z,4.8
2022-12-01T05:45:59.340Z,4.8
2022-12-01T05:48:01.380Z,4.8
2022-12-01T05:49:03.979Z,4.8
2022-12-01T05:51:06.027Z,4.8
2022-12-01T05:53:08.102Z,4.8
2022-12-01T05:55:10.188Z,4.8
2022-12-01T05:57:15.461Z,4.8
2022-12-01T05:59:17.473Z,4.8
2022-12-01T06:01:19.505Z,4.8
2022-12-01T06:03:21.576Z,4.8
2022-12-01T06:11:32.981Z,4.8
2022-12-01T06:15:37.082Z,4.8
2022-12-01T06:17:40.540Z,4.8
2022-12-01T06:19:41.179Z,4.8
2022-12-01T06:21:43.258Z,4.8
2022-12-01T06:23:45.301Z,4.8
2022-12-01T06:27:52.607Z,4.8
2022-12-01T06:33:59.695Z,4.8
2022-12-01T06:36:01.759Z,4.8
2022-12-01T06:40:09.089Z,4.8
2022-12-01T06:42:11.123Z,4.8
2022-12-01T06:44:13.170Z,4.9
2022-12-01T06:46:30.043Z,4.8
2022-12-01T06:48:32.070Z,4.8
2022-12-01T06:50:34.105Z,4.8
2022-12-01T06:52:39.319Z,4.9
2022-12-01T06:54:41.374Z,4.8
2022-12-01T06:56:43.431Z,4.9
2022-12-01T06:58:45.510Z,4.9
2022-12-01T07:00:51.867Z,4.9
2022-12-01T07:02:49.745Z,4.8
2022-12-01T07:04:51.714Z,4.9
2022-12-01T07:06:56.940Z,4.9
2022-12-01T07:08:59.019Z,4.8
2022-12-01T07:11:01.074Z,4.8
2022-12-01T07:13:03.119Z,4.8
2022-12-01T07:19:09.374Z,4.8
2022-12-01T07:21:14.595Z,4.8
2022-12-01T07:23:16.638Z,4.8
2022-12-01T07:25:18.687Z,4.8
2022-12-01T07:27:20.771Z,4.8
2022-12-01T07:29:22.849Z,4.8
2022-12-01T07:31:24.963Z,4.8
2022-12-01T07:35:32.217Z,4.9
2022-12-01T07:37:34.288Z,4.9
2022-12-01T07:39:36.336Z,4.9
2022-12-01T07:40:38.961Z,4.9
2022-12-01T07:42:41.143Z,4.8
2022-12-01T07:44:43.175Z,4.8
2022-12-01T07:46:45.323Z,4.9
2022-12-01T07:48:50.478Z,4.9
2022-12-01T07:50:52.515Z,4.9
2022-12-01T07:52:54.568Z,4.9
2022-12-01T07:54:56.629Z,4.9
2022-12-01T07:56:58.698Z,4.9
2022-12-01T07:59:00.743Z,4.9
2022-12-01T08:01:02.820Z,4.9
2022-12-01T08:03:08.106Z,4.9
2022-12-01T08:05:10.105Z,4.9
2022-12-01T08:07:12.175Z,4.9
2022-12-01T08:09:14.250Z,5
2022-12-01T08:11:16.337Z,4.9
2022-12-01T08:13:18.401Z,5
2022-12-01T08:15:20.508Z,5
2022-12-01T08:17:25.700Z,5.1
2022-12-01T08:19:27.751Z,5
2022-12-01T08:21:29.821Z,5.1
2022-12-01T08:23:31.867Z,5.1
2022-12-01T08:25:33.909Z,5.1
2022-12-01T08:29:38.044Z,5.1
2022-12-01T08:31:43.284Z,5.1
2022-12-01T08:35:47.399Z,5.2
2022-12-01T08:36:49.990Z,5.2
2022-12-01T08:38:52.043Z,5.2
2022-12-01T08:40:54.106Z,5.2
2022-12-01T08:42:56.178Z,5.2
2022-12-01T08:45:01.508Z,5.3
2022-12-01T08:47:03.438Z,5.4
2022-12-01T08:49:05.544Z,5.4
2022-12-01T08:51:07.598Z,5.4
2022-12-01T08:55:11.681Z,5.4
2022-12-01T08:57:13.758Z,5.4
2022-12-01T08:59:18.971Z,5.4
2022-12-01T09:01:21.183Z,5.4
2022-12-01T09:03:23.207Z,5.5
2022-12-01T09:05:25.191Z,5.6
2022-12-01T09:07:27.327Z,5.6
2022-12-01T09:09:23.387Z,5.6
2022-12-01T09:11:25.463Z,5.6
2022-12-01T09:13:30.674Z,5.7
2022-12-01T09:17:34.823Z,5.7
2022-12-01T09:19:36.898Z,5.6
2022-12-01T09:21:38.957Z,5.6
2022-12-01T09:23:41.050Z,5.6
2022-12-01T09:25:43.095Z,5.6
2022-12-01T09:27:48.321Z,5.7
2022-12-01T09:29:50.741Z,5.7
2022-12-01T09:31:52.555Z,5.7
2022-12-01T09:32:55.110Z,5.7
2022-12-01T09:34:57.163Z,5.7
2022-12-01T09:36:59.225Z,5.6
2022-12-01T09:39:01.351Z,5.6
2022-12-01T09:41:06.588Z,5.6
2022-12-01T09:43:08.652Z,5.6
2022-12-01T09:45:10.717Z,5.7
2022-12-01T09:47:12.860Z,5.8
2022-12-01T09:49:14.847Z,5.7
2022-12-01T09:51:16.902Z,5.6
2022-12-01T09:55:24.225Z,5.7
2022-12-01T09:57:26.182Z,5.7
2022-12-01T09:59:28.248Z,5.7
2022-12-01T10:01:30.383Z,5.7
2022-12-01T10:03:32.431Z,5.7
2022-12-01T10:05:34.526Z,5.7
2022-12-01T10:09:42.366Z,5.6
2022-12-01T10:11:44.334Z,5.6
2022-12-01T10:13:46.400Z,5.6
2022-12-01T10:17:50.548Z,5.7
2022-12-01T10:19:52.656Z,5.7
2022-12-01T10:21:54.713Z,5.8
2022-12-01T10:24:01.272Z,5.7
2022-12-01T10:26:03.204Z,5.7
2022-12-01T10:30:28.342Z,5.8
2022-12-01T10:32:30.317Z,5.8
2022-12-01T10:34:32.390Z,5.7
2022-12-01T10:36:37.437Z,5.8
2022-12-01T10:38:39.396Z,5.8
2022-12-01T10:40:41.485Z,5.9
2022-12-01T10:42:43.479Z,6
2022-12-01T10:44:45.428Z,6.1
2022-12-01T10:46:47.397Z,6.1
2022-12-01T10:48:49.491Z,6.2
2022-12-01T10:50:54.650Z,6.3
2022-12-01T10:52:56.698Z,6.2
2022-12-01T10:54:58.666Z,6.2
2022-12-01T10:57:00.762Z,6.2
2022-12-01T11:03:06.879Z,6.4
2022-12-01T11:07:13.703Z,6.4
2022-12-01T11:09:15.673Z,6.3
2022-12-01T11:11:17.748Z,6.3
2022-12-01T11:13:19.705Z,6.2
2022-12-01T11:15:21.715Z,6.3
2022-12-01T11:17:23.666Z,6.3
2022-12-01T11:19:28.787Z,6.4
2022-12-01T11:21:30.665Z,6.3
2022-12-01T11:23:32.666Z,6.5
2022-12-01T11:24:35.219Z,6.6
2022-12-01T11:26:37.171Z,6.6
2022-12-01T11:28:39.139Z,6.5
2022-12-01T11:30:41.132Z,6.4
2022-12-01T11:32:46.162Z,6.5
2022-12-01T11:34:48.592Z,6.5
2022-12-01T11:36:50.171Z,6.6
2022-12-01T11:38:52.113Z,6.7
2022-12-01T11:40:54.136Z,6.7
2022-12-01T11:42:56.047Z,6.9
2022-12-01T11:44:58.022Z,7
2022-12-01T11:47:22.278Z,7.1
2022-12-01T11:51:07.055Z,7
2022-12-01T11:55:11.038Z,7.1
2022-12-01T11:57:33.035Z,7.4
2022-12-01T11:59:14.993Z,7.2
2022-12-01T12:01:22.168Z,7.1
2022-12-01T12:03:22.021Z,7.1
2022-12-01T12:05:24.009Z,7.1
2022-12-01T12:07:26.036Z,7.9
2022-12-01T12:09:27.970Z,9.6
2022-12-01T12:11:29.950Z,9
2022-12-01T12:13:31.912Z,8.6
2022-12-01T12:15:36.964Z,8.4
2022-12-01T12:17:39.103Z,8.6
2022-12-01T12:20:00.356Z,9
2022-12-01T12:20:43.487Z,9.6
2022-12-01T12:22:46.301Z,10.4
2022-12-01T12:24:47.428Z,10.3
2022-12-01T12:26:49.401Z,9.8
2022-12-01T12:28:54.476Z,8.8
2022-12-01T12:30:56.534Z,8.4
2022-12-01T12:32:58.443Z,7.6
2022-12-01T12:35:00.422Z,7.4
2022-12-01T12:37:02.408Z,7.6
2022-12-01T12:39:04.437Z,7.8
2022-12-01T12:41:06.538Z,7.7
2022-12-01T12:43:11.445Z,7.3
2022-12-01T12:45:13.435Z,7.3
2022-12-01T12:47:15.417Z,7.1
2022-12-01T12:49:20.065Z,7.1
2022-12-01T12:55:23.421Z,7.2
2022-12-01T12:57:28.504Z,6.9
2022-12-01T13:03:34.425Z,7
2022-12-01T13:07:38.526Z,7.1
2022-12-01T13:09:40.408Z,7.1
2022-12-01T13:11:45.430Z,7.1
2022-12-01T13:13:47.411Z,7
2022-12-01T13:16:51.937Z,7
2022-12-01T13:18:53.931Z,7
2022-12-01T13:20:55.982Z,7.1
2022-12-01T13:22:57.871Z,7
2022-12-01T13:25:02.930Z,7.1
2022-12-01T13:27:04.913Z,7.1
2022-12-01T13:29:06.916Z,7
2022-12-01T13:31:09.022Z,7
2022-12-01T13:33:10.878Z,7.1
2022-12-01T13:35:12.856Z,7
2022-12-01T13:37:14.864Z,6.9
2022-12-01T13:39:19.924Z,6.6
2022-12-01T13:41:21.878Z,6.6
2022-12-01T13:43:23.874Z,6.5
2022-12-01T13:45:25.843Z,6.5
2022-12-01T13:47:27.826Z,6.5
2022-12-01T13:49:33.241Z,6.4
2022-12-01T13:51:31.804Z,6.4
2022-12-01T14:01:44.895Z,6.4
2022-12-01T14:03:46.805Z,6.3
2022-12-01T14:05:48.789Z,6.3
2022-12-01T14:07:53.901Z,6.3
2022-12-01T14:09:55.783Z,6.3
2022-12-01T14:11:57.768Z,6.3
2022-12-01T14:14:25.802Z,6.2
2022-12-01T14:16:22.800Z,6.2
2022-12-01T14:18:24.719Z,6.2
2022-12-01T14:20:29.833Z,6.2
2022-12-01T14:22:31.760Z,6.2
2022-12-01T14:30:39.685Z,6.1
2022-12-01T14:32:41.674Z,6.1
2022-12-01T14:34:46.850Z,6.1
2022-12-01T14:36:48.714Z,6.1
2022-12-01T14:38:50.665Z,6.1
2022-12-01T14:40:52.678Z,6
2022-12-01T14:42:54.632Z,6
2022-12-01T14:44:56.669Z,6
2022-12-01T14:46:58.769Z,6
2022-12-01T14:49:03.645Z,6
2022-12-01T14:51:05.621Z,6
2022-12-01T14:53:07.630Z,6
2022-12-01T14:55:09.615Z,6
2022-12-01T14:57:16.566Z,6
2022-12-01T14:59:13.580Z,6
2022-12-01T15:01:15.624Z,5.9
2022-12-01T15:03:20.577Z,5.9
2022-12-01T15:05:22.571Z,5.9
2022-12-01T15:07:24.607Z,5.9
2022-12-01T15:10:29.053Z,5.9
2022-12-01T15:12:31.025Z,5.9
2022-12-01T15:14:33.078Z,5.9
2022-12-01T15:16:38.250Z,5.8
2022-12-01T15:18:40.117Z,5.8
2022-12-01T15:20:47.593Z,5.8
2022-12-01T15:22:44.055Z,5.8
2022-12-01T15:24:46.050Z,5.8
2022-12-01T15:26:48.021Z,5.8
2022-12-01T15:28:50.026Z,5.8
2022-12-01T15:30:55.220Z,5.8
2022-12-01T15:32:57.005Z,5.8
2022-12-01T15:34:58.986Z,5.8
2022-12-01T15:37:00.961Z,5.7
2022-12-01T15:39:07.030Z,5.7
2022-12-01T15:41:30.009Z,5.7
2022-12-01T15:43:06.988Z,5.7
2022-12-01T15:49:16.145Z,5.7
2022-12-01T15:51:18.118Z,5.7
2022-12-01T15:53:20.083Z,5.7
2022-12-01T15:55:22.095Z,5.7
2022-12-01T15:57:24.058Z,5.7
2022-12-01T15:59:29.073Z,5.7
2022-12-01T16:01:31.086Z,5.7
2022-12-01T16:03:33.051Z,5.6
2022-12-01T16:04:35.576Z,5.7
2022-12-01T16:06:37.541Z,5.6
2022-12-01T16:08:39.579Z,5.6
2022-12-01T16:10:41.482Z,5.6
2022-12-01T16:12:46.502Z,5.6
2022-12-01T16:14:50.319Z,5.6
2022-12-01T16:16:52.103Z,5.6
2022-12-01T16:18:53.920Z,5.6
2022-12-01T16:20:55.890Z,5.6
2022-12-01T16:22:57.880Z,5.6
2022-12-01T16:24:59.863Z,5.6
2022-12-01T16:27:04.892Z,5.6
2022-12-01T16:29:06.888Z,5.6
2022-12-01T16:31:13.977Z,5.6
2022-12-01T16:33:10.832Z,5.6
2022-12-01T16:35:12.835Z,5.6
2022-12-01T16:37:14.823Z,5.6
2022-12-01T16:39:16.890Z,5.6
2022-12-01T16:41:22.207Z,5.6
2022-12-01T16:43:24.270Z,5.6
2022-12-01T16:45:26.323Z,5.6
2022-12-01T16:47:28.412Z,5.5
2022-12-01T16:49:30.383Z,5.5
2022-12-01T16:51:54.352Z,5.5
2022-12-01T16:53:34.361Z,5.5
2022-12-01T16:55:39.372Z,5.5
2022-12-01T16:57:41.330Z,5.5
2022-12-01T16:59:43.321Z,5.5
2022-12-01T17:00:45.817Z,5.5
2022-12-01T17:02:47.842Z,5.5
2022-12-01T17:04:49.999Z,5.4
2022-12-01T17:06:51.770Z,5.4
2022-12-01T17:08:56.799Z,5.5
2022-12-01T17:10:58.786Z,5.4
2022-12-01T17:13:00.776Z,5.4
2022-12-01T17:15:02.723Z,5.4
2022-12-01T17:17:04.711Z,5.4
2022-12-01T17:19:06.687Z,5.4
2022-12-01T17:21:08.667Z,5.4
2022-12-01T17:25:15.796Z,5.4
2022-12-01T17:27:17.886Z,5.4
2022-12-01T17:33:23.800Z,5.4
2022-12-01T17:35:25.905Z,5.4
2022-12-01T17:37:31.220Z,5.4
2022-12-01T17:39:33.182Z,5.4
2022-12-01T17:41:35.150Z,5.3
2022-12-01T17:43:37.255Z,5.4
2022-12-01T17:45:39.329Z,5.3
2022-12-01T17:51:48.554Z,5.4
2022-12-01T17:58:05.673Z,5.4
2022-12-01T18:00:12.839Z,5.4
2022-12-01T18:02:14.906Z,5.4
2022-12-01T18:04:19.974Z,5.4
2022-12-01T18:06:21.962Z,5.4
2022-12-01T18:08:24.056Z,5.4
2022-12-01T18:10:26.125Z,5.4
2022-12-01T18:12:28.109Z,5.4
2022-12-01T18:14:30.070Z,5.4
2022-12-01T18:16:32.209Z,5.4
2022-12-01T18:18:37.210Z,5.4
2022-12-01T18:24:43.143Z,5.4
2022-12-01T18:26:45.118Z,5.4
2022-12-01T18:28:47.059Z,5.4
2022-12-01T18:30:49.041Z,5.4
2022-12-01T18:34:56.068Z,5.4
2022-12-01T18:36:58.034Z,5.4
2022-12-01T18:39:00.128Z,5.4
2022-12-01T18:43:04.204Z,5.3
2022-12-01T18:45:06.295Z,5.3
2022-12-01T18:47:11.545Z,5.3
2022-12-01T18:51:15.549Z,5.3
2022-12-01T18:52:18.163Z,5.3
2022-12-01T18:54:20.157Z,5.3
2022-12-01T18:56:22.273Z,5.3
2022-12-01T19:00:29.665Z,5.2
2022-12-01T19:04:33.739Z,5.2
2022-12-01T19:06:35.835Z,5.2
2022-12-01T19:08:37.921Z,5.2
2022-12-01T19:10:39.983Z,5.2
2022-12-01T19:12:42.057Z,5.2
2022-12-01T19:14:47.386Z,5.1
2022-12-01T19:16:49.426Z,5.2
2022-12-01T19:18:51.436Z,5.1
2022-12-01T19:20:53.370Z,5.2
2022-12-01T19:22:55.445Z,5.2
2022-12-01T19:24:57.585Z,5.1
2022-12-01T19:26:59.587Z,5.2
2022-12-01T19:29:04.733Z,5.1
2022-12-01T19:39:14.902Z,5.1
2022-12-01T19:47:26.020Z,5.1
2022-12-01T19:48:28.640Z,5
2022-12-01T19:50:30.613Z,5.1
2022-12-01T19:52:32.563Z,5.1
2022-12-01T19:54:34.647Z,5.1
2022-12-01T19:56:39.879Z,5.1
2022-12-01T19:58:41.967Z,5
2022-12-01T20:00:44.085Z,5
2022-12-01T20:02:46.057Z,5
2022-12-01T20:04:48.402Z,5
2022-12-01T20:06:50.168Z,5
2022-12-01T20:08:52.234Z,5.1
2022-12-01T20:15:01.510Z,5
2022-12-01T20:19:05.664Z,5
2022-12-01T20:21:07.734Z,5
2022-12-01T20:25:15.055Z,5
2022-12-01T20:33:23.254Z,5
2022-12-01T20:35:25.312Z,4.9
2022-12-01T20:37:27.399Z,4.9
2022-12-01T20:44:39.399Z,4.9
2022-12-01T20:46:41.462Z,4.9
2022-12-01T20:54:53.092Z,4.8
2022-12-01T20:56:55.001Z,4.8
2022-12-01T20:58:57.054Z,4.7
2022-12-01T21:00:59.154Z,4.8
2022-12-01T21:07:08.500Z,4.7
2022-12-01T21:09:10.561Z,4.7
2022-12-01T21:15:16.757Z,4.7
2022-12-01T21:17:18.843Z,4.6
2022-12-01T21:19:20.938Z,4.6
2022-12-01T21:21:26.110Z,4.6
2022-12-01T21:23:28.156Z,4.5
2022-12-01T21:25:30.274Z,4.5
2022-12-01T21:27:32.312Z,4.5
2022-12-01T21:29:34.376Z,4.5
2022-12-01T21:31:36.424Z,4.5
2022-12-01T21:33:38.498Z,4.4
2022-12-01T21:35:43.856Z,4.4
2022-12-01T21:37:45.806Z,4.4
2022-12-01T21:39:47.866Z,4.4
2022-12-01T21:42:04.910Z,4.4
2022-12-01T21:44:06.972Z,4.4
2022-12-01T21:48:14.282Z,4.3
2022-12-01T21:50:16.338Z,4.3
2022-12-01T21:52:18.406Z,4.3
2022-12-01T21:54:20.431Z,4.3
2022-12-01T21:56:22.508Z,4.3
2022-12-01T21:58:24.601Z,4.3
2022-12-01T22:00:26.664Z,4.3
2022-12-01T22:02:31.921Z,4.3
2022-12-01T22:04:33.959Z,4.3
2022-12-01T22:06:36.066Z,4.2
2022-12-01T22:08:39.624Z,4.2
2022-12-01T22:10:41.616Z,4.2
2022-12-01T22:12:43.695Z,4.2
2022-12-01T22:14:45.759Z,4.2
2022-12-01T22:16:50.986Z,4.2
2022-12-01T22:18:53.019Z,4.2
2022-12-01T22:22:57.186Z,4.2
2022-12-01T22:24:59.247Z,4.2
2022-12-01T22:27:01.306Z,4.2
2022-12-01T22:29:03.344Z,4.2
2022-12-01T22:31:08.608Z,4.2
2022-12-01T22:33:10.633Z,4.2
2022-12-01T22:35:12.709Z,4.2
2022-12-01T22:36:15.312Z,4.1
2022-12-01T22:38:17.373Z,4.1
2022-12-01T22:40:19.438Z,4.1
2022-12-01T22:42:21.491Z,4.2
2022-12-01T22:44:26.725Z,4.1
2022-12-01T22:46:28.861Z,4.1
2022-12-01T22:48:30.842Z,4.1
2022-12-01T22:50:32.919Z,4.1
2022-12-01T22:52:34.981Z,4.1
2022-12-01T22:54:37.040Z,4.1
2022-12-01T22:56:39.103Z,4.1
2022-12-01T22:58:44.282Z,4.1
2022-12-01T23:00:46.331Z,4.1
2022-12-01T23:02:48.470Z,4.1
2022-12-01T23:04:50.786Z,4.1
2022-12-01T23:06:52.515Z,4.1
2022-12-01T23:10:56.639Z,4.1
2022-12-01T23:13:01.835Z,4.1
2022-12-01T23:15:03.905Z,4.1
2022-12-01T23:17:05.988Z,4.1
2022-12-01T23:19:08.029Z,4.1
2022-12-01T23:21:10.078Z,4.1
2022-12-01T23:23:12.136Z,4.1
2022-12-01T23:25:14.185Z,4.1
2022-12-01T23:27:19.398Z,4.1
2022-12-01T23:29:21.474Z,4.1
2022-12-01T23:31:23.596Z,4.1
2022-12-01T23:32:26.135Z,4.1
2022-12-01T23:34:28.180Z,4.1
2022-12-01T23:36:30.250Z,4.1
2022-12-01T23:38:32.334Z,4.1
2022-12-01T23:40:37.518Z,4.1
2022-12-01T23:42:39.615Z,4.1
2022-12-01T23:44:41.696Z,4.1
2022-12-01T23:46:43.879Z,4
2022-12-01T23:48:45.833Z,4
2022-12-01T23:50:47.854Z,4
2022-12-01T23:52:49.913Z,4
2022-12-01T23:54:55.163Z,4
2022-12-01T23:56:57.237Z,4
2022-12-01T23:58:59.268Z,4
